Maynardville, TN

1:10 PM EDT on September 19, 2014 (GMT -0400)
Paulette | Change Station
CLOSE
Current Station
Personal Weather Station
Location: Maynardville, TN
Elevation: 1036 ft
Nearby Weather Stations

Elev 1036 ft 36.17 °N, 83.91 °W | Updated 1 second ago

Clear
Clear
77.4 °F
Feels Like 79 °F
N
1.8
Wind Variable Wind from SE
Gusts 4.5 mph

Today
High -- | Low -- °F
--% Chance of Precip.
Yesterday
High -- | Low -- °F
Precip. -- in
7:21 AM 7:36 PM
Waning Crescent, 18% visible
Pressure 30.09 in
Visibility 10.0 miles
Clouds Clear
Heat Index 79 °F
Dew Point 60 °F
Humidity 54%
Rainfall 0.00 in
Snow Depth Not available.
UV 9 out of 12
Pollen 6.70 out of 12
Ozone Good
Flu Activity Not available.
METAR KOQT 191653Z AUTO 00000KT 10SM CLR 25/16 A3012 RMK AO2 SLP190 T02500156

More Conditions Fewer Conditions

Pressure 30.09 in
Visibility 10.0 miles
Clouds Clear
Heat Index 79 °F
Dew Point 60 °F
Humidity 54%
Rainfall 0.00 in
Snow Depth Not available.
UV 9 out of 12
Pollen 6.70 out of 12
Ozone Good
Flu Activity Not available.
METAR KOQT 191653Z AUTO 00000KT 10SM CLR 25/16 A3012 RMK AO2 SLP190 T02500156

More Conditions Fewer Conditions

10-Day Weather Forecast

Almanac

Astronomy

Sep. 19, 2014 Rise Set
Actual Time 7:21 AM EDT 7:36 PM EDT
Civil Twilight 6:55 AM EDT 8:02 PM EDT
Nautical Twilight 6:25 AM EDT 8:32 PM EDT
Astronomical Twilight 5:54 AM EDT 9:03 PM EDT
Moon 3:11 AM EDT 4:59 PM EDT
Length of Visible Light 13h 07m
Length of Day
12h 15m
Tomorrow will be 2m 16s shorter.
Waning Crescent, 18% of the Moon is Illuminated
Today
Waning Crescent
Sep 24
New
Oct 1
First Quarter
Oct 8
Full
Oct 15
Last Quarter

Today's Extremes

State Highs State Lows

Community

WunderPhotos

Upload Photos

1,754,655 photos uploaded!

Nearby

Air Quality

  Air Quality AQ Index Pollutant
Yesterday Good
PM2.5
Yesterday Good
OZONE
Current Good
OZONE
Friday Moderate
PM2.5
Friday Good
OZONE
Saturday Moderate
PM2.5
Saturday Good
OZONE

Snow Depth

Station Depth Elevation
No new snow has been reported.

Earthquake Activity

City Distance Mag. Time & Date
No recent earthquake activity has been reported nearby.
Minimum magnitude displayed is 2.5.

Coastal Water Temperatures

Place Temperature
No Stations Reporting

Nearby Weather Stations